sensor_id;sensor_type;location;lat;lon;timestamp;temperature;humidity
41060;DHT22;26811;53.160;8.202;2023-02-15T00:03:37;1.20;99.90
41060;DHT22;26811;53.160;8.202;2023-02-15T00:08:38;1.10;99.90
41060;DHT22;26811;53.160;8.202;2023-02-15T00:13:38;1.20;99.90
41060;DHT22;26811;53.160;8.202;2023-02-15T00:18:42;1.20;99.90
41060;DHT22;26811;53.160;8.202;2023-02-15T00:23:42;1.20;99.90
41060;DHT22;26811;53.160;8.202;2023-02-15T00:28:43;1.20;99.90
41060;DHT22;26811;53.160;8.202;2023-02-15T00:33:43;1.40;99.90
41060;DHT22;26811;53.160;8.202;2023-02-15T00:38:44;1.70;99.90
41060;DHT22;26811;53.160;8.202;2023-02-15T00:43:44;1.80;99.90
41060;DHT22;26811;53.160;8.202;2023-02-15T00:48:45;1.80;99.90
41060;DHT22;26811;53.160;8.202;2023-02-15T00:53:46;1.80;99.90
41060;DHT22;26811;53.160;8.202;2023-02-15T00:58:47;1.80;99.90
41060;DHT22;26811;53.160;8.202;2023-02-15T01:03:48;1.80;99.90
41060;DHT22;26811;53.160;8.202;2023-02-15T01:08:48;1.80;99.90
41060;DHT22;26811;53.160;8.202;2023-02-15T01:13:51;1.80;99.90
41060;DHT22;26811;53.160;8.202;2023-02-15T01:18:52;1.70;99.90
41060;DHT22;26811;53.160;8.202;2023-02-15T01:23:53;1.80;99.90
41060;DHT22;26811;53.160;8.202;2023-02-15T01:28:54;1.80;99.90
41060;DHT22;26811;53.160;8.202;2023-02-15T01:33:54;1.70;99.90
41060;DHT22;26811;53.160;8.202;2023-02-15T01:38:55;1.60;99.90
41060;DHT22;26811;53.160;8.202;2023-02-15T01:43:58;1.60;99.90
41060;DHT22;26811;53.160;8.202;2023-02-15T01:49:14;1.50;99.90
41060;DHT22;26811;53.160;8.202;2023-02-15T01:54:19;1.40;99.90
41060;DHT22;26811;53.160;8.202;2023-02-15T01:59:23;1.30;99.90
41060;DHT22;26811;53.160;8.202;2023-02-15T02:04:31;1.20;99.90
41060;DHT22;26811;53.160;8.202;2023-02-15T02:09:35;1.10;99.90
41060;DHT22;26811;53.160;8.202;2023-02-15T02:14:36;1.00;99.90
41060;DHT22;26811;53.160;8.202;2023-02-15T02:30:42;0.70;99.90
41060;DHT22;26811;53.160;8.202;2023-02-15T02:36:14;0.60;99.90
41060;DHT22;26811;53.160;8.202;2023-02-15T02:46:21;0.50;99.90
41060;DHT22;26811;53.160;8.202;2023-02-15T02:51:22;0.50;99.90
41060;DHT22;26811;53.160;8.202;2023-02-15T02:56:29;0.50;99.90
41060;DHT22;26811;53.160;8.202;2023-02-15T03:01:38;0.40;99.90
41060;DHT22;26811;53.160;8.202;2023-02-15T03:06:52;0.40;99.90
41060;DHT22;26811;53.160;8.202;2023-02-15T03:11:53;0.30;99.90
41060;DHT22;26811;53.160;8.202;2023-02-15T03:16:54;0.30;99.90
41060;DHT22;26811;53.160;8.202;2023-02-15T03:22:00;0.30;99.90
41060;DHT22;26811;53.160;8.202;2023-02-15T03:27:14;0.30;99.90
41060;DHT22;26811;53.160;8.202;2023-02-15T03:32:18;0.20;99.90
41060;DHT22;26811;53.160;8.202;2023-02-15T03:37:35;0.20;99.90
41060;DHT22;26811;53.160;8.202;2023-02-15T03:42:38;0.20;99.90
41060;DHT22;26811;53.160;8.202;2023-02-15T03:47:46;0.20;99.90
41060;DHT22;26811;53.160;8.202;2023-02-15T03:52:48;0.20;99.90
41060;DHT22;26811;53.160;8.202;2023-02-15T03:57:48;0.10;99.90
41060;DHT22;26811;53.160;8.202;2023-02-15T04:03:31;0.10;99.90
41060;DHT22;26811;53.160;8.202;2023-02-15T04:08:33;0.10;99.90
41060;DHT22;26811;53.160;8.202;2023-02-15T04:13:52;0.10;99.90
41060;DHT22;26811;53.160;8.202;2023-02-15T04:18:56;0.10;99.90
41060;DHT22;26811;53.160;8.202;2023-02-15T04:24:15;0.10;99.90
41060;DHT22;26811;53.160;8.202;2023-02-15T04:29:35;0.20;99.90
41060;DHT22;26811;53.160;8.202;2023-02-15T04:34:35;0.20;99.90
41060;DHT22;26811;53.160;8.202;2023-02-15T04:39:36;0.20;99.90
41060;DHT22;26811;53.160;8.202;2023-02-15T04:44:36;0.20;99.90
41060;DHT22;26811;53.160;8.202;2023-02-15T04:49:36;0.20;99.90
41060;DHT22;26811;53.160;8.202;2023-02-15T04:54:37;0.20;99.90
41060;DHT22;26811;53.160;8.202;2023-02-15T04:59:38;0.20;99.90
41060;DHT22;26811;53.160;8.202;2023-02-15T05:04:38;0.30;99.90
41060;DHT22;26811;53.160;8.202;2023-02-15T05:09:39;0.30;99.90
41060;DHT22;26811;53.160;8.202;2023-02-15T05:14:39;0.20;99.90
41060;DHT22;26811;53.160;8.202;2023-02-15T05:19:40;0.20;99.90
41060;DHT22;26811;53.160;8.202;2023-02-15T05:24:40;0.20;99.90
41060;DHT22;26811;53.160;8.202;2023-02-15T05:29:59;0.10;99.90
41060;DHT22;26811;53.160;8.202;2023-02-15T05:35:00;0.10;99.90
41060;DHT22;26811;53.160;8.202;2023-02-15T05:40:00;0.10;99.90
41060;DHT22;26811;53.160;8.202;2023-02-15T05:45:01;0.00;99.90
41060;DHT22;26811;53.160;8.202;2023-02-15T05:50:04;0.00;99.90
41060;DHT22;26811;53.160;8.202;2023-02-15T05:55:05;-0.10;99.90
41060;DHT22;26811;53.160;8.202;2023-02-15T06:00:06;-0.10;99.90
41060;DHT22;26811;53.160;8.202;2023-02-15T06:05:08;-0.10;99.90
41060;DHT22;26811;53.160;8.202;2023-02-15T06:10:09;-0.10;99.90
41060;DHT22;26811;53.160;8.202;2023-02-15T06:15:10;-0.20;99.90
41060;DHT22;26811;53.160;8.202;2023-02-15T06:20:11;-0.20;99.90
41060;DHT22;26811;53.160;8.202;2023-02-15T06:25:11;-0.20;99.90
41060;DHT22;26811;53.160;8.202;2023-02-15T06:30:12;-0.30;99.90
41060;DHT22;26811;53.160;8.202;2023-02-15T06:35:13;-0.30;99.90
41060;DHT22;26811;53.160;8.202;2023-02-15T06:40:14;-0.30;99.90
41060;DHT22;26811;53.160;8.202;2023-02-15T06:45:14;-0.30;99.90
41060;DHT22;26811;53.160;8.202;2023-02-15T06:50:15;-0.30;99.90
41060;DHT22;26811;53.160;8.202;2023-02-15T06:55:15;-0.20;99.90
41060;DHT22;26811;53.160;8.202;2023-02-15T07:00:16;-0.20;99.90
41060;DHT22;26811;53.160;8.202;2023-02-15T07:05:17;-0.20;99.90
41060;DHT22;26811;53.160;8.202;2023-02-15T07:10:18;-0.10;99.90
41060;DHT22;26811;53.160;8.202;2023-02-15T07:15:19;0.00;99.90
41060;DHT22;26811;53.160;8.202;2023-02-15T07:20:23;0.00;99.90
41060;DHT22;26811;53.160;8.202;2023-02-15T07:25:23;0.10;99.90
41060;DHT22;26811;53.160;8.202;2023-02-15T07:30:24;0.20;99.90
41060;DHT22;26811;53.160;8.202;2023-02-15T07:35:25;0.40;99.90
41060;DHT22;26811;53.160;8.202;2023-02-15T07:40:25;0.50;99.90
41060;DHT22;26811;53.160;8.202;2023-02-15T07:45:26;0.60;99.90
41060;DHT22;26811;53.160;8.202;2023-02-15T07:50:27;0.80;99.90
41060;DHT22;26811;53.160;8.202;2023-02-15T07:55:27;1.00;99.90
41060;DHT22;26811;53.160;8.202;2023-02-15T08:00:28;1.10;99.90
41060;DHT22;26811;53.160;8.202;2023-02-15T08:05:29;1.40;99.90
41060;DHT22;26811;53.160;8.202;2023-02-15T08:10:30;1.70;99.90
41060;DHT22;26811;53.160;8.202;2023-02-15T08:15:50;2.10;99.90
41060;DHT22;26811;53.160;8.202;2023-02-15T08:20:50;2.50;99.90
41060;DHT22;26811;53.160;8.202;2023-02-15T08:25:51;2.90;99.90
41060;DHT22;26811;53.160;8.202;2023-02-15T08:30:51;3.10;99.90
41060;DHT22;26811;53.160;8.202;2023-02-15T08:35:52;3.20;99.90
41060;DHT22;26811;53.160;8.202;2023-02-15T08:40:52;3.30;99.90
41060;DHT22;26811;53.160;8.202;2023-02-15T08:45:53;3.50;99.90
41060;DHT22;26811;53.160;8.202;2023-02-15T08:50:53;3.70;99.90
41060;DHT22;26811;53.160;8.202;2023-02-15T08:55:58;3.90;99.90
41060;DHT22;26811;53.160;8.202;2023-02-15T09:00:58;4.20;99.90
41060;DHT22;26811;53.160;8.202;2023-02-15T09:06:00;4.70;99.90
41060;DHT22;26811;53.160;8.202;2023-02-15T09:11:22;5.00;99.90
41060;DHT22;26811;53.160;8.202;2023-02-15T09:16:25;5.20;99.90
41060;DHT22;26811;53.160;8.202;2023-02-15T09:21:27;5.50;99.90
41060;DHT22;26811;53.160;8.202;2023-02-15T09:26:29;5.80;99.90
41060;DHT22;26811;53.160;8.202;2023-02-15T09:31:32;6.00;99.90
41060;DHT22;26811;53.160;8.202;2023-02-15T09:36:36;6.20;99.90
41060;DHT22;26811;53.160;8.202;2023-02-15T09:47:25;6.80;99.90
41060;DHT22;26811;53.160;8.202;2023-02-15T09:58:07;7.40;99.90
41060;DHT22;26811;53.160;8.202;2023-02-15T10:03:25;7.50;99.90
41060;DHT22;26811;53.160;8.202;2023-02-15T10:30:09;8.40;99.90
41060;DHT22;26811;53.160;8.202;2023-02-15T10:45:55;9.00;99.90
41060;DHT22;26811;53.160;8.202;2023-02-15T10:51:00;9.10;99.90
41060;DHT22;26811;53.160;8.202;2023-02-15T10:56:08;9.20;99.90
41060;DHT22;26811;53.160;8.202;2023-02-15T11:01:14;9.40;99.90
41060;DHT22;26811;53.160;8.202;2023-02-15T11:06:21;9.40;99.90
41060;DHT22;26811;53.160;8.202;2023-02-15T11:11:41;9.60;99.90
41060;DHT22;26811;53.160;8.202;2023-02-15T11:16:49;9.90;99.90
41060;DHT22;26811;53.160;8.202;2023-02-15T11:21:58;10.00;99.90
41060;DHT22;26811;53.160;8.202;2023-02-15T11:27:25;10.20;99.90
41060;DHT22;26811;53.160;8.202;2023-02-15T11:32:39;10.40;99.90
41060;DHT22;26811;53.160;8.202;2023-02-15T11:37:51;10.40;99.90
41060;DHT22;26811;53.160;8.202;2023-02-15T11:42:56;10.40;99.90
41060;DHT22;26811;53.160;8.202;2023-02-15T11:47:58;10.30;99.90
41060;DHT22;26811;53.160;8.202;2023-02-15T11:53:11;10.30;99.90
41060;DHT22;26811;53.160;8.202;2023-02-15T11:58:24;10.30;99.90
41060;DHT22;26811;53.160;8.202;2023-02-15T12:08:39;10.70;99.90
41060;DHT22;26811;53.160;8.202;2023-02-15T12:13:58;10.80;99.90
41060;DHT22;26811;53.160;8.202;2023-02-15T12:19:01;10.90;99.90
41060;DHT22;26811;53.160;8.202;2023-02-15T12:24:25;10.90;99.90
41060;DHT22;26811;53.160;8.202;2023-02-15T12:29:42;10.90;99.90
41060;DHT22;26811;53.160;8.202;2023-02-15T12:34:43;11.10;99.90
41060;DHT22;26811;53.160;8.202;2023-02-15T12:39:53;11.30;99.90
41060;DHT22;26811;53.160;8.202;2023-02-15T12:50:22;11.50;99.90
41060;DHT22;26811;53.160;8.202;2023-02-15T12:55:26;11.60;99.90
41060;DHT22;26811;53.160;8.202;2023-02-15T13:00:28;11.70;99.90
41060;DHT22;26811;53.160;8.202;2023-02-15T13:05:44;11.70;99.90
41060;DHT22;26811;53.160;8.202;2023-02-15T13:11:08;11.60;99.90
41060;DHT22;26811;53.160;8.202;2023-02-15T13:16:13;11.50;99.90
41060;DHT22;26811;53.160;8.202;2023-02-15T13:21:19;11.50;99.90
41060;DHT22;26811;53.160;8.202;2023-02-15T13:26:22;11.50;99.90
41060;DHT22;26811;53.160;8.202;2023-02-15T13:31:25;11.60;99.90
41060;DHT22;26811;53.160;8.202;2023-02-15T13:42:04;12.00;99.90
41060;DHT22;26811;53.160;8.202;2023-02-15T13:52:20;12.20;99.90
41060;DHT22;26811;53.160;8.202;2023-02-15T14:24:46;11.50;99.90
41060;DHT22;26811;53.160;8.202;2023-02-15T14:30:03;11.50;99.90
41060;DHT22;26811;53.160;8.202;2023-02-15T14:35:13;11.40;99.90
41060;DHT22;26811;53.160;8.202;2023-02-15T14:46:09;11.20;99.90
41060;DHT22;26811;53.160;8.202;2023-02-15T15:12:13;10.90;99.90
41060;DHT22;26811;53.160;8.202;2023-02-15T15:22:38;10.60;99.90
41060;DHT22;26811;53.160;8.202;2023-02-15T15:43:54;10.20;99.90
41060;DHT22;26811;53.160;8.202;2023-02-15T15:49:08;10.20;99.90
41060;DHT22;26811;53.160;8.202;2023-02-15T15:54:16;10.00;99.90
41060;DHT22;26811;53.160;8.202;2023-02-15T15:59:21;9.80;99.90
41060;DHT22;26811;53.160;8.202;2023-02-15T16:04:31;9.70;99.90
41060;DHT22;26811;53.160;8.202;2023-02-15T16:09:32;9.60;99.90
41060;DHT22;26811;53.160;8.202;2023-02-15T16:14:36;9.40;99.90
41060;DHT22;26811;53.160;8.202;2023-02-15T16:19:41;9.30;99.90
41060;DHT22;26811;53.160;8.202;2023-02-15T16:29:57;9.10;99.90
41060;DHT22;26811;53.160;8.202;2023-02-15T16:34:59;9.00;99.90
41060;DHT22;26811;53.160;8.202;2023-02-15T16:40:00;8.90;99.90
41060;DHT22;26811;53.160;8.202;2023-02-15T16:50:30;8.60;99.90
41060;DHT22;26811;53.160;8.202;2023-02-15T16:55:42;8.30;99.90
41060;DHT22;26811;53.160;8.202;2023-02-15T17:00:43;8.10;99.90
41060;DHT22;26811;53.160;8.202;2023-02-15T17:11:18;8.10;99.90
41060;DHT22;26811;53.160;8.202;2023-02-15T17:16:27;8.00;99.90
41060;DHT22;26811;53.160;8.202;2023-02-15T17:21:33;7.90;99.90
41060;DHT22;26811;53.160;8.202;2023-02-15T17:26:36;7.60;99.90
41060;DHT22;26811;53.160;8.202;2023-02-15T17:31:37;7.60;99.90
41060;DHT22;26811;53.160;8.202;2023-02-15T17:36:57;7.70;99.90
41060;DHT22;26811;53.160;8.202;2023-02-15T17:41:58;7.70;99.90
41060;DHT22;26811;53.160;8.202;2023-02-15T17:46:58;7.70;99.90
41060;DHT22;26811;53.160;8.202;2023-02-15T17:52:02;7.70;99.90
41060;DHT22;26811;53.160;8.202;2023-02-15T17:57:11;7.70;99.90
41060;DHT22;26811;53.160;8.202;2023-02-15T18:02:12;7.60;99.90
41060;DHT22;26811;53.160;8.202;2023-02-15T18:07:31;7.40;99.90
41060;DHT22;26811;53.160;8.202;2023-02-15T18:12:50;7.30;99.90
41060;DHT22;26811;53.160;8.202;2023-02-15T18:17:51;7.30;99.90
41060;DHT22;26811;53.160;8.202;2023-02-15T18:22:51;7.20;99.90
41060;DHT22;26811;53.160;8.202;2023-02-15T18:27:53;7.20;99.90
41060;DHT22;26811;53.160;8.202;2023-02-15T18:32:55;7.10;99.90
41060;DHT22;26811;53.160;8.202;2023-02-15T18:37:57;7.10;99.90
41060;DHT22;26811;53.160;8.202;2023-02-15T18:42:58;7.00;99.90
41060;DHT22;26811;53.160;8.202;2023-02-15T18:47:59;6.90;99.90
41060;DHT22;26811;53.160;8.202;2023-02-15T18:53:02;6.90;99.90
41060;DHT22;26811;53.160;8.202;2023-02-15T18:58:02;6.90;99.90
41060;DHT22;26811;53.160;8.202;2023-02-15T19:03:03;6.90;99.90
41060;DHT22;26811;53.160;8.202;2023-02-15T19:08:04;6.70;99.90
41060;DHT22;26811;53.160;8.202;2023-02-15T19:13:09;6.60;99.90
41060;DHT22;26811;53.160;8.202;2023-02-15T19:18:10;6.50;99.90
41060;DHT22;26811;53.160;8.202;2023-02-15T19:23:15;6.40;99.90
41060;DHT22;26811;53.160;8.202;2023-02-15T19:28:30;6.20;99.90
41060;DHT22;26811;53.160;8.202;2023-02-15T19:33:32;5.90;99.90
41060;DHT22;26811;53.160;8.202;2023-02-15T19:38:33;5.80;99.90
41060;DHT22;26811;53.160;8.202;2023-02-15T19:43:35;5.70;99.90
41060;DHT22;26811;53.160;8.202;2023-02-15T19:48:36;5.70;99.90
41060;DHT22;26811;53.160;8.202;2023-02-15T19:53:36;5.70;99.90
41060;DHT22;26811;53.160;8.202;2023-02-15T19:58:37;5.70;99.90
41060;DHT22;26811;53.160;8.202;2023-02-15T20:03:37;5.80;99.90
41060;DHT22;26811;53.160;8.202;2023-02-15T20:08:38;6.00;99.90
41060;DHT22;26811;53.160;8.202;2023-02-15T20:13:39;6.10;99.90
41060;DHT22;26811;53.160;8.202;2023-02-15T20:18:39;6.20;99.90
41060;DHT22;26811;53.160;8.202;2023-02-15T20:23:43;6.10;99.90
41060;DHT22;26811;53.160;8.202;2023-02-15T20:28:45;5.90;99.90
41060;DHT22;26811;53.160;8.202;2023-02-15T20:33:48;5.90;99.90
41060;DHT22;26811;53.160;8.202;2023-02-15T20:38:48;5.90;99.90
41060;DHT22;26811;53.160;8.202;2023-02-15T20:43:49;5.90;99.90
41060;DHT22;26811;53.160;8.202;2023-02-15T20:48:50;5.90;99.90
41060;DHT22;26811;53.160;8.202;2023-02-15T20:53:50;5.90;99.90
41060;DHT22;26811;53.160;8.202;2023-02-15T20:58:52;5.90;99.90
41060;DHT22;26811;53.160;8.202;2023-02-15T21:03:52;5.90;99.90
41060;DHT22;26811;53.160;8.202;2023-02-15T21:08:53;6.00;99.90
41060;DHT22;26811;53.160;8.202;2023-02-15T21:13:53;6.00;99.90
41060;DHT22;26811;53.160;8.202;2023-02-15T21:18:54;6.00;99.90
41060;DHT22;26811;53.160;8.202;2023-02-15T21:23:55;6.00;99.90
41060;DHT22;26811;53.160;8.202;2023-02-15T21:28:55;6.00;99.90
41060;DHT22;26811;53.160;8.202;2023-02-15T21:33:56;6.00;99.90
41060;DHT22;26811;53.160;8.202;2023-02-15T21:38:57;5.90;99.90
41060;DHT22;26811;53.160;8.202;2023-02-15T21:43:57;5.90;99.90
41060;DHT22;26811;53.160;8.202;2023-02-15T21:49:16;6.00;99.90
41060;DHT22;26811;53.160;8.202;2023-02-15T21:54:18;5.90;99.90
41060;DHT22;26811;53.160;8.202;2023-02-15T21:59:19;5.90;99.90
41060;DHT22;26811;53.160;8.202;2023-02-15T22:04:23;5.90;99.90
41060;DHT22;26811;53.160;8.202;2023-02-15T22:09:26;5.90;99.90
41060;DHT22;26811;53.160;8.202;2023-02-15T22:14:38;5.90;99.90
41060;DHT22;26811;53.160;8.202;2023-02-15T22:19:39;5.90;99.90
41060;DHT22;26811;53.160;8.202;2023-02-15T22:24:40;5.90;99.90
41060;DHT22;26811;53.160;8.202;2023-02-15T22:29:40;5.90;99.90
41060;DHT22;26811;53.160;8.202;2023-02-15T22:34:41;5.90;99.90
41060;DHT22;26811;53.160;8.202;2023-02-15T22:39:42;6.00;99.90
41060;DHT22;26811;53.160;8.202;2023-02-15T22:44:42;5.90;99.90
41060;DHT22;26811;53.160;8.202;2023-02-15T22:49:43;5.90;99.90
41060;DHT22;26811;53.160;8.202;2023-02-15T22:54:44;5.90;99.90
41060;DHT22;26811;53.160;8.202;2023-02-15T22:59:45;5.80;99.90
41060;DHT22;26811;53.160;8.202;2023-02-15T23:04:46;5.80;99.90
41060;DHT22;26811;53.160;8.202;2023-02-15T23:09:46;5.80;99.90
41060;DHT22;26811;53.160;8.202;2023-02-15T23:14:47;5.80;99.90
41060;DHT22;26811;53.160;8.202;2023-02-15T23:19:47;5.70;99.90
41060;DHT22;26811;53.160;8.202;2023-02-15T23:24:51;5.70;99.90
41060;DHT22;26811;53.160;8.202;2023-02-15T23:29:52;5.60;99.90
41060;DHT22;26811;53.160;8.202;2023-02-15T23:34:52;5.60;99.90
41060;DHT22;26811;53.160;8.202;2023-02-15T23:39:53;5.60;99.90
41060;DHT22;26811;53.160;8.202;2023-02-15T23:45:20;5.60;99.90
41060;DHT22;26811;53.160;8.202;2023-02-15T23:50:24;5.60;99.90
41060;DHT22;26811;53.160;8.202;2023-02-15T23:55:27;5.50;99.90
